sensor_id;sensor_type;location;lat;lon;timestamp;P1;durP1;ratioP1;P2;durP2;ratioP2
4232;SDS011;2130;48.472;11.934;2022-07-10T00:00:43;68.90;;;5.27;;
4232;SDS011;2130;48.472;11.934;2022-07-10T00:03:11;69.60;;;5.67;;
4232;SDS011;2130;48.472;11.934;2022-07-10T00:05:40;69.20;;;5.20;;
4232;SDS011;2130;48.472;11.934;2022-07-10T00:08:08;68.50;;;5.23;;
4232;SDS011;2130;48.472;11.934;2022-07-10T00:10:38;69.00;;;5.20;;
4232;SDS011;2130;48.472;11.934;2022-07-10T00:13:06;70.30;;;5.90;;
4232;SDS011;2130;48.472;11.934;2022-07-10T00:15:34;69.30;;;4.80;;
4232;SDS011;2130;48.472;11.934;2022-07-10T00:18:03;70.40;;;5.63;;
4232;SDS011;2130;48.472;11.934;2022-07-10T00:20:31;69.73;;;5.27;;
4232;SDS011;2130;48.472;11.934;2022-07-10T00:23:01;69.77;;;5.80;;
4232;SDS011;2130;48.472;11.934;2022-07-10T00:25:29;69.10;;;5.30;;
4232;SDS011;2130;48.472;11.934;2022-07-10T00:27:59;70.70;;;5.73;;
4232;SDS011;2130;48.472;11.934;2022-07-10T00:30:27;71.10;;;5.40;;
4232;SDS011;2130;48.472;11.934;2022-07-10T00:32:55;69.50;;;4.93;;
4232;SDS011;2130;48.472;11.934;2022-07-10T00:35:23;70.07;;;5.70;;
4232;SDS011;2130;48.472;11.934;2022-07-10T00:40:44;69.70;;;5.27;;
4232;SDS011;2130;48.472;11.934;2022-07-10T00:43:14;69.40;;;5.33;;
4232;SDS011;2130;48.472;11.934;2022-07-10T00:45:43;70.77;;;5.90;;
4232;SDS011;2130;48.472;11.934;2022-07-10T00:48:11;70.43;;;5.63;;
4232;SDS011;2130;48.472;11.934;2022-07-10T00:50:39;71.27;;;5.77;;
4232;SDS011;2130;48.472;11.934;2022-07-10T00:53:08;68.57;;;5.13;;
4232;SDS011;2130;48.472;11.934;2022-07-10T00:55:36;70.43;;;5.70;;
4232;SDS011;2130;48.472;11.934;2022-07-10T00:58:05;70.07;;;5.57;;
4232;SDS011;2130;48.472;11.934;2022-07-10T01:00:35;70.70;;;6.20;;
4232;SDS011;2130;48.472;11.934;2022-07-10T01:03:04;69.30;;;5.40;;
4232;SDS011;2130;48.472;11.934;2022-07-10T01:05:33;70.67;;;6.50;;
4232;SDS011;2130;48.472;11.934;2022-07-10T01:08:01;71.00;;;5.30;;
4232;SDS011;2130;48.472;11.934;2022-07-10T01:10:29;69.50;;;5.63;;
4232;SDS011;2130;48.472;11.934;2022-07-10T01:12:57;70.67;;;6.00;;
4232;SDS011;2130;48.472;11.934;2022-07-10T01:15:25;70.27;;;5.80;;
4232;SDS011;2130;48.472;11.934;2022-07-10T01:17:55;70.40;;;5.57;;
4232;SDS011;2130;48.472;11.934;2022-07-10T01:20:29;70.20;;;5.70;;
4232;SDS011;2130;48.472;11.934;2022-07-10T01:22:59;70.20;;;5.50;;
4232;SDS011;2130;48.472;11.934;2022-07-10T01:25:27;70.37;;;5.87;;
4232;SDS011;2130;48.472;11.934;2022-07-10T01:27:55;70.40;;;5.83;;
4232;SDS011;2130;48.472;11.934;2022-07-10T01:30:23;73.67;;;5.90;;
4232;SDS011;2130;48.472;11.934;2022-07-10T01:32:52;70.23;;;6.03;;
4232;SDS011;2130;48.472;11.934;2022-07-10T01:35:21;71.10;;;5.80;;
4232;SDS011;2130;48.472;11.934;2022-07-10T01:37:49;69.90;;;5.53;;
4232;SDS011;2130;48.472;11.934;2022-07-10T01:40:18;72.83;;;5.70;;
4232;SDS011;2130;48.472;11.934;2022-07-10T01:42:46;74.77;;;5.80;;
4232;SDS011;2130;48.472;11.934;2022-07-10T01:45:15;70.27;;;5.60;;
4232;SDS011;2130;48.472;11.934;2022-07-10T01:47:43;70.77;;;5.17;;
4232;SDS011;2130;48.472;11.934;2022-07-10T01:50:12;71.20;;;5.43;;
4232;SDS011;2130;48.472;11.934;2022-07-10T01:52:40;70.60;;;5.90;;
4232;SDS011;2130;48.472;11.934;2022-07-10T01:55:08;70.27;;;5.40;;
4232;SDS011;2130;48.472;11.934;2022-07-10T01:57:38;69.37;;;5.70;;
4232;SDS011;2130;48.472;11.934;2022-07-10T02:00:07;70.43;;;5.80;;
4232;SDS011;2130;48.472;11.934;2022-07-10T02:02:39;70.33;;;5.50;;
4232;SDS011;2130;48.472;11.934;2022-07-10T02:05:07;68.87;;;5.40;;
4232;SDS011;2130;48.472;11.934;2022-07-10T02:07:35;70.67;;;5.93;;
4232;SDS011;2130;48.472;11.934;2022-07-10T02:10:03;70.77;;;6.00;;
4232;SDS011;2130;48.472;11.934;2022-07-10T02:12:32;70.60;;;5.90;;
4232;SDS011;2130;48.472;11.934;2022-07-10T02:15:01;71.20;;;6.07;;
4232;SDS011;2130;48.472;11.934;2022-07-10T02:17:30;70.30;;;5.63;;
4232;SDS011;2130;48.472;11.934;2022-07-10T02:22:51;70.90;;;6.20;;
4232;SDS011;2130;48.472;11.934;2022-07-10T02:25:20;71.90;;;5.93;;
4232;SDS011;2130;48.472;11.934;2022-07-10T02:27:48;70.97;;;5.87;;
4232;SDS011;2130;48.472;11.934;2022-07-10T02:30:17;71.00;;;6.40;;
4232;SDS011;2130;48.472;11.934;2022-07-10T02:32:45;71.17;;;6.40;;
4232;SDS011;2130;48.472;11.934;2022-07-10T02:35:13;71.40;;;6.20;;
4232;SDS011;2130;48.472;11.934;2022-07-10T02:37:41;73.47;;;6.60;;
4232;SDS011;2130;48.472;11.934;2022-07-10T02:40:09;70.67;;;6.30;;
4232;SDS011;2130;48.472;11.934;2022-07-10T02:42:38;74.97;;;6.43;;
4232;SDS011;2130;48.472;11.934;2022-07-10T02:45:06;71.77;;;5.90;;
4232;SDS011;2130;48.472;11.934;2022-07-10T02:47:36;70.73;;;6.40;;
4232;SDS011;2130;48.472;11.934;2022-07-10T02:50:04;70.40;;;6.10;;
4232;SDS011;2130;48.472;11.934;2022-07-10T02:52:34;72.10;;;6.50;;
4232;SDS011;2130;48.472;11.934;2022-07-10T02:55:02;72.30;;;6.90;;
4232;SDS011;2130;48.472;11.934;2022-07-10T02:57:30;71.13;;;6.47;;
4232;SDS011;2130;48.472;11.934;2022-07-10T02:59:58;71.23;;;6.90;;
4232;SDS011;2130;48.472;11.934;2022-07-10T03:02:26;71.77;;;6.73;;
4232;SDS011;2130;48.472;11.934;2022-07-10T03:04:56;69.67;;;6.53;;
4232;SDS011;2130;48.472;11.934;2022-07-10T03:07:24;71.50;;;6.70;;
4232;SDS011;2130;48.472;11.934;2022-07-10T03:09:52;74.70;;;6.83;;
4232;SDS011;2130;48.472;11.934;2022-07-10T03:12:20;70.57;;;6.43;;
4232;SDS011;2130;48.472;11.934;2022-07-10T03:14:48;70.83;;;5.80;;
4232;SDS011;2130;48.472;11.934;2022-07-10T03:17:17;71.50;;;6.00;;
4232;SDS011;2130;48.472;11.934;2022-07-10T03:19:45;71.23;;;6.30;;
4232;SDS011;2130;48.472;11.934;2022-07-10T03:22:14;71.17;;;6.40;;
4232;SDS011;2130;48.472;11.934;2022-07-10T03:24:42;71.70;;;6.10;;
4232;SDS011;2130;48.472;11.934;2022-07-10T03:27:13;71.87;;;6.70;;
4232;SDS011;2130;48.472;11.934;2022-07-10T03:29:41;71.20;;;6.43;;
4232;SDS011;2130;48.472;11.934;2022-07-10T03:32:09;70.87;;;6.20;;
4232;SDS011;2130;48.472;11.934;2022-07-10T03:34:38;72.30;;;6.30;;
4232;SDS011;2130;48.472;11.934;2022-07-10T03:37:06;70.77;;;6.10;;
4232;SDS011;2130;48.472;11.934;2022-07-10T03:39:36;70.60;;;5.90;;
4232;SDS011;2130;48.472;11.934;2022-07-10T03:42:04;70.07;;;5.80;;
4232;SDS011;2130;48.472;11.934;2022-07-10T03:44:33;73.10;;;6.73;;
4232;SDS011;2130;48.472;11.934;2022-07-10T03:47:01;72.63;;;6.50;;
4232;SDS011;2130;48.472;11.934;2022-07-10T03:49:30;71.17;;;6.67;;
4232;SDS011;2130;48.472;11.934;2022-07-10T03:52:10;70.57;;;5.77;;
4232;SDS011;2130;48.472;11.934;2022-07-10T03:54:40;70.50;;;5.70;;
4232;SDS011;2130;48.472;11.934;2022-07-10T03:57:08;70.67;;;5.97;;
4232;SDS011;2130;48.472;11.934;2022-07-10T03:59:54;70.97;;;6.47;;
4232;SDS011;2130;48.472;11.934;2022-07-10T04:02:22;70.07;;;6.40;;
4232;SDS011;2130;48.472;11.934;2022-07-10T04:04:50;70.90;;;6.40;;
4232;SDS011;2130;48.472;11.934;2022-07-10T04:07:18;69.93;;;6.57;;
4232;SDS011;2130;48.472;11.934;2022-07-10T04:09:48;69.50;;;5.90;;
4232;SDS011;2130;48.472;11.934;2022-07-10T04:12:16;69.20;;;6.00;;
4232;SDS011;2130;48.472;11.934;2022-07-10T04:14:44;72.37;;;6.63;;
4232;SDS011;2130;48.472;11.934;2022-07-10T04:17:14;69.77;;;6.40;;
4232;SDS011;2130;48.472;11.934;2022-07-10T04:19:42;71.67;;;6.57;;
4232;SDS011;2130;48.472;11.934;2022-07-10T04:22:11;70.43;;;5.90;;
4232;SDS011;2130;48.472;11.934;2022-07-10T04:24:39;69.50;;;5.80;;
4232;SDS011;2130;48.472;11.934;2022-07-10T04:27:08;70.80;;;6.67;;
4232;SDS011;2130;48.472;11.934;2022-07-10T04:29:36;70.27;;;5.87;;
4232;SDS011;2130;48.472;11.934;2022-07-10T04:32:04;71.27;;;7.13;;
4232;SDS011;2130;48.472;11.934;2022-07-10T04:34:33;70.80;;;6.20;;
4232;SDS011;2130;48.472;11.934;2022-07-10T04:37:01;70.00;;;5.83;;
4232;SDS011;2130;48.472;11.934;2022-07-10T04:39:29;71.47;;;6.57;;
4232;SDS011;2130;48.472;11.934;2022-07-10T04:41:58;72.90;;;6.57;;
4232;SDS011;2130;48.472;11.934;2022-07-10T04:44:27;71.90;;;7.00;;
4232;SDS011;2130;48.472;11.934;2022-07-10T04:46:55;71.57;;;6.43;;
4232;SDS011;2130;48.472;11.934;2022-07-10T04:49:24;72.60;;;7.20;;
4232;SDS011;2130;48.472;11.934;2022-07-10T04:51:52;72.00;;;7.10;;
4232;SDS011;2130;48.472;11.934;2022-07-10T04:54:20;72.60;;;7.17;;
4232;SDS011;2130;48.472;11.934;2022-07-10T04:56:48;72.37;;;6.87;;
4232;SDS011;2130;48.472;11.934;2022-07-10T04:59:16;71.20;;;6.93;;
4232;SDS011;2130;48.472;11.934;2022-07-10T05:01:46;72.33;;;7.30;;
4232;SDS011;2130;48.472;11.934;2022-07-10T05:04:14;72.27;;;7.40;;
4232;SDS011;2130;48.472;11.934;2022-07-10T05:06:42;72.30;;;7.30;;
4232;SDS011;2130;48.472;11.934;2022-07-10T05:09:10;72.50;;;7.10;;
4232;SDS011;2130;48.472;11.934;2022-07-10T05:11:38;72.00;;;7.63;;
4232;SDS011;2130;48.472;11.934;2022-07-10T05:14:07;72.30;;;7.57;;
4232;SDS011;2130;48.472;11.934;2022-07-10T05:16:35;72.37;;;7.27;;
4232;SDS011;2130;48.472;11.934;2022-07-10T05:19:05;71.77;;;6.97;;
4232;SDS011;2130;48.472;11.934;2022-07-10T05:21:33;72.77;;;6.90;;
4232;SDS011;2130;48.472;11.934;2022-07-10T05:24:01;72.37;;;7.53;;
4232;SDS011;2130;48.472;11.934;2022-07-10T05:26:29;72.37;;;6.83;;
4232;SDS011;2130;48.472;11.934;2022-07-10T05:28:57;72.03;;;7.40;;
4232;SDS011;2130;48.472;11.934;2022-07-10T05:31:25;72.10;;;6.53;;
4232;SDS011;2130;48.472;11.934;2022-07-10T05:33:53;72.77;;;7.27;;
4232;SDS011;2130;48.472;11.934;2022-07-10T05:36:23;71.07;;;6.93;;
4232;SDS011;2130;48.472;11.934;2022-07-10T05:38:51;71.90;;;7.10;;
4232;SDS011;2130;48.472;11.934;2022-07-10T05:41:19;71.47;;;6.83;;
4232;SDS011;2130;48.472;11.934;2022-07-10T05:43:47;71.87;;;7.47;;
4232;SDS011;2130;48.472;11.934;2022-07-10T05:46:15;71.90;;;7.10;;
4232;SDS011;2130;48.472;11.934;2022-07-10T05:48:43;71.93;;;7.33;;
4232;SDS011;2130;48.472;11.934;2022-07-10T05:51:11;71.57;;;7.23;;
4232;SDS011;2130;48.472;11.934;2022-07-10T05:54:01;71.30;;;7.17;;
4232;SDS011;2130;48.472;11.934;2022-07-10T05:56:29;73.03;;;7.30;;
4232;SDS011;2130;48.472;11.934;2022-07-10T05:58:58;72.10;;;7.70;;
4232;SDS011;2130;48.472;11.934;2022-07-10T06:01:27;71.00;;;7.40;;
4232;SDS011;2130;48.472;11.934;2022-07-10T06:03:55;70.57;;;6.63;;
4232;SDS011;2130;48.472;11.934;2022-07-10T06:06:23;70.57;;;7.37;;
4232;SDS011;2130;48.472;11.934;2022-07-10T06:08:52;72.17;;;7.70;;
4232;SDS011;2130;48.472;11.934;2022-07-10T06:11:21;71.73;;;7.50;;
4232;SDS011;2130;48.472;11.934;2022-07-10T06:13:49;71.60;;;6.70;;
4232;SDS011;2130;48.472;11.934;2022-07-10T06:16:17;69.50;;;6.10;;
4232;SDS011;2130;48.472;11.934;2022-07-10T06:18:46;69.80;;;6.50;;
4232;SDS011;2130;48.472;11.934;2022-07-10T06:21:14;70.70;;;7.10;;
4232;SDS011;2130;48.472;11.934;2022-07-10T06:23:45;70.80;;;6.67;;
4232;SDS011;2130;48.472;11.934;2022-07-10T06:26:13;71.77;;;6.73;;
4232;SDS011;2130;48.472;11.934;2022-07-10T06:28:42;70.33;;;6.73;;
4232;SDS011;2130;48.472;11.934;2022-07-10T06:31:11;70.60;;;6.90;;
4232;SDS011;2130;48.472;11.934;2022-07-10T06:33:39;70.80;;;6.50;;
4232;SDS011;2130;48.472;11.934;2022-07-10T06:36:07;70.40;;;5.93;;
4232;SDS011;2130;48.472;11.934;2022-07-10T06:38:35;71.33;;;5.80;;
4232;SDS011;2130;48.472;11.934;2022-07-10T06:41:04;70.40;;;6.30;;
4232;SDS011;2130;48.472;11.934;2022-07-10T06:43:32;70.77;;;6.10;;
4232;SDS011;2130;48.472;11.934;2022-07-10T06:46:02;70.00;;;6.17;;
4232;SDS011;2130;48.472;11.934;2022-07-10T06:48:30;72.67;;;6.87;;
4232;SDS011;2130;48.472;11.934;2022-07-10T06:50:59;71.20;;;7.37;;
4232;SDS011;2130;48.472;11.934;2022-07-10T06:53:27;70.30;;;7.07;;
4232;SDS011;2130;48.472;11.934;2022-07-10T06:55:55;73.10;;;7.33;;
4232;SDS011;2130;48.472;11.934;2022-07-10T06:58:23;71.90;;;7.20;;
4232;SDS011;2130;48.472;11.934;2022-07-10T07:00:51;71.77;;;7.20;;
4232;SDS011;2130;48.472;11.934;2022-07-10T07:03:21;71.13;;;6.80;;
4232;SDS011;2130;48.472;11.934;2022-07-10T07:05:49;75.43;;;7.57;;
4232;SDS011;2130;48.472;11.934;2022-07-10T07:08:17;71.17;;;6.83;;
4232;SDS011;2130;48.472;11.934;2022-07-10T07:10:45;72.20;;;6.57;;
4232;SDS011;2130;48.472;11.934;2022-07-10T07:13:14;69.77;;;6.43;;
4232;SDS011;2130;48.472;11.934;2022-07-10T07:15:42;69.93;;;6.10;;
4232;SDS011;2130;48.472;11.934;2022-07-10T07:18:17;69.63;;;6.37;;
4232;SDS011;2130;48.472;11.934;2022-07-10T07:20:49;71.27;;;6.47;;
4232;SDS011;2130;48.472;11.934;2022-07-10T07:23:58;69.87;;;6.17;;
4232;SDS011;2130;48.472;11.934;2022-07-10T07:26:27;69.90;;;6.60;;
4232;SDS011;2130;48.472;11.934;2022-07-10T07:28:55;70.67;;;6.70;;
4232;SDS011;2130;48.472;11.934;2022-07-10T07:31:23;69.83;;;6.40;;
4232;SDS011;2130;48.472;11.934;2022-07-10T07:33:52;71.27;;;7.10;;
4232;SDS011;2130;48.472;11.934;2022-07-10T07:36:21;72.20;;;7.17;;
4232;SDS011;2130;48.472;11.934;2022-07-10T07:38:49;70.70;;;6.50;;
4232;SDS011;2130;48.472;11.934;2022-07-10T07:41:19;72.77;;;6.60;;
4232;SDS011;2130;48.472;11.934;2022-07-10T07:43:47;72.77;;;6.77;;
4232;SDS011;2130;48.472;11.934;2022-07-10T07:46:15;71.00;;;7.50;;
4232;SDS011;2130;48.472;11.934;2022-07-10T07:48:44;70.50;;;6.80;;
4232;SDS011;2130;48.472;11.934;2022-07-10T07:51:12;71.47;;;7.20;;
4232;SDS011;2130;48.472;11.934;2022-07-10T07:53:42;71.07;;;7.20;;
4232;SDS011;2130;48.472;11.934;2022-07-10T07:56:10;71.60;;;6.60;;
4232;SDS011;2130;48.472;11.934;2022-07-10T07:58:38;70.27;;;5.87;;
4232;SDS011;2130;48.472;11.934;2022-07-10T08:01:07;69.50;;;5.30;;
4232;SDS011;2130;48.472;11.934;2022-07-10T08:03:35;71.27;;;6.40;;
4232;SDS011;2130;48.472;11.934;2022-07-10T08:06:24;70.70;;;6.57;;
4232;SDS011;2130;48.472;11.934;2022-07-10T08:08:53;69.87;;;6.70;;
4232;SDS011;2130;48.472;11.934;2022-07-10T08:11:21;70.00;;;6.00;;
4232;SDS011;2130;48.472;11.934;2022-07-10T08:13:50;72.60;;;6.13;;
4232;SDS011;2130;48.472;11.934;2022-07-10T08:16:18;68.60;;;5.70;;
4232;SDS011;2130;48.472;11.934;2022-07-10T08:18:47;68.47;;;4.97;;
4232;SDS011;2130;48.472;11.934;2022-07-10T08:21:17;68.47;;;4.57;;
4232;SDS011;2130;48.472;11.934;2022-07-10T08:26:41;67.80;;;3.93;;
4232;SDS011;2130;48.472;11.934;2022-07-10T08:29:10;67.37;;;4.10;;
4232;SDS011;2130;48.472;11.934;2022-07-10T08:31:38;67.67;;;4.00;;
4232;SDS011;2130;48.472;11.934;2022-07-10T08:34:07;69.10;;;4.10;;
4232;SDS011;2130;48.472;11.934;2022-07-10T08:36:35;68.90;;;3.93;;
4232;SDS011;2130;48.472;11.934;2022-07-10T08:39:06;66.87;;;3.50;;
4232;SDS011;2130;48.472;11.934;2022-07-10T08:41:36;66.63;;;3.20;;
4232;SDS011;2130;48.472;11.934;2022-07-10T08:44:04;67.57;;;3.40;;
4232;SDS011;2130;48.472;11.934;2022-07-10T08:46:32;67.60;;;3.57;;
4232;SDS011;2130;48.472;11.934;2022-07-10T08:49:01;67.33;;;3.20;;
4232;SDS011;2130;48.472;11.934;2022-07-10T08:51:35;66.77;;;3.30;;
4232;SDS011;2130;48.472;11.934;2022-07-10T08:54:05;67.57;;;3.30;;
4232;SDS011;2130;48.472;11.934;2022-07-10T08:56:34;66.37;;;3.20;;
4232;SDS011;2130;48.472;11.934;2022-07-10T08:59:04;67.10;;;3.17;;
4232;SDS011;2130;48.472;11.934;2022-07-10T09:01:32;66.80;;;3.30;;
4232;SDS011;2130;48.472;11.934;2022-07-10T09:04:00;66.87;;;3.10;;
4232;SDS011;2130;48.472;11.934;2022-07-10T09:06:28;70.70;;;3.40;;
4232;SDS011;2130;48.472;11.934;2022-07-10T09:09:02;67.37;;;3.10;;
4232;SDS011;2130;48.472;11.934;2022-07-10T09:11:31;66.70;;;3.13;;
4232;SDS011;2130;48.472;11.934;2022-07-10T09:14:02;69.07;;;4.33;;
4232;SDS011;2130;48.472;11.934;2022-07-10T09:16:34;66.10;;;2.80;;
4232;SDS011;2130;48.472;11.934;2022-07-10T09:21:47;66.57;;;2.80;;
4232;SDS011;2130;48.472;11.934;2022-07-10T09:24:16;66.67;;;3.20;;
4232;SDS011;2130;48.472;11.934;2022-07-10T09:26:48;66.47;;;3.00;;
4232;SDS011;2130;48.472;11.934;2022-07-10T09:29:28;67.80;;;3.20;;
4232;SDS011;2130;48.472;11.934;2022-07-10T09:31:56;66.83;;;3.10;;
4232;SDS011;2130;48.472;11.934;2022-07-10T09:34:35;67.13;;;3.20;;
4232;SDS011;2130;48.472;11.934;2022-07-10T09:37:17;66.37;;;3.23;;
4232;SDS011;2130;48.472;11.934;2022-07-10T09:39:52;67.23;;;3.20;;
4232;SDS011;2130;48.472;11.934;2022-07-10T09:42:28;67.50;;;3.10;;
4232;SDS011;2130;48.472;11.934;2022-07-10T09:45:15;67.27;;;3.20;;
4232;SDS011;2130;48.472;11.934;2022-07-10T09:47:45;70.27;;;3.40;;
4232;SDS011;2130;48.472;11.934;2022-07-10T09:50:22;67.17;;;3.30;;
4232;SDS011;2130;48.472;11.934;2022-07-10T09:52:53;68.97;;;3.00;;
4232;SDS011;2130;48.472;11.934;2022-07-10T09:55:23;67.53;;;2.93;;
4232;SDS011;2130;48.472;11.934;2022-07-10T09:57:54;67.80;;;3.23;;
4232;SDS011;2130;48.472;11.934;2022-07-10T10:00:25;67.93;;;2.60;;
4232;SDS011;2130;48.472;11.934;2022-07-10T10:02:55;68.47;;;3.20;;
4232;SDS011;2130;48.472;11.934;2022-07-10T10:05:35;68.00;;;2.90;;
4232;SDS011;2130;48.472;11.934;2022-07-10T10:08:10;67.17;;;2.57;;
4232;SDS011;2130;48.472;11.934;2022-07-10T10:10:41;66.30;;;2.80;;
4232;SDS011;2130;48.472;11.934;2022-07-10T10:13:12;67.10;;;2.80;;
4232;SDS011;2130;48.472;11.934;2022-07-10T10:15:45;66.67;;;2.70;;
4232;SDS011;2130;48.472;11.934;2022-07-10T10:18:16;66.43;;;2.67;;
4232;SDS011;2130;48.472;11.934;2022-07-10T10:20:45;67.07;;;2.87;;
4232;SDS011;2130;48.472;11.934;2022-07-10T10:23:13;68.97;;;3.93;;
4232;SDS011;2130;48.472;11.934;2022-07-10T10:25:44;69.07;;;3.40;;
4232;SDS011;2130;48.472;11.934;2022-07-10T10:28:13;69.43;;;3.40;;
4232;SDS011;2130;48.472;11.934;2022-07-10T10:30:42;73.17;;;3.27;;
4232;SDS011;2130;48.472;11.934;2022-07-10T10:36:11;67.00;;;3.17;;
4232;SDS011;2130;48.472;11.934;2022-07-10T10:41:28;67.53;;;3.03;;
4232;SDS011;2130;48.472;11.934;2022-07-10T10:46:56;66.67;;;2.70;;
4232;SDS011;2130;48.472;11.934;2022-07-10T10:55:16;67.23;;;2.90;;
4232;SDS011;2130;48.472;11.934;2022-07-10T10:57:47;66.87;;;3.10;;
4232;SDS011;2130;48.472;11.934;2022-07-10T11:00:30;71.53;;;4.03;;
4232;SDS011;2130;48.472;11.934;2022-07-10T11:03:15;68.47;;;2.90;;
4232;SDS011;2130;48.472;11.934;2022-07-10T11:05:48;68.07;;;3.13;;
4232;SDS011;2130;48.472;11.934;2022-07-10T11:14:10;67.47;;;3.07;;
4232;SDS011;2130;48.472;11.934;2022-07-10T11:16:47;67.40;;;2.90;;
4232;SDS011;2130;48.472;11.934;2022-07-10T11:19:22;68.93;;;3.00;;
4232;SDS011;2130;48.472;11.934;2022-07-10T11:21:54;67.13;;;3.10;;
4232;SDS011;2130;48.472;11.934;2022-07-10T11:24:37;67.10;;;2.87;;
4232;SDS011;2130;48.472;11.934;2022-07-10T11:27:15;67.20;;;2.90;;
4232;SDS011;2130;48.472;11.934;2022-07-10T11:29:58;67.57;;;3.07;;
4232;SDS011;2130;48.472;11.934;2022-07-10T11:32:27;67.27;;;2.90;;
4232;SDS011;2130;48.472;11.934;2022-07-10T11:34:57;67.10;;;2.80;;
4232;SDS011;2130;48.472;11.934;2022-07-10T11:37:26;67.80;;;2.90;;
4232;SDS011;2130;48.472;11.934;2022-07-10T11:40:09;66.40;;;2.70;;
4232;SDS011;2130;48.472;11.934;2022-07-10T11:42:47;66.77;;;2.70;;
4232;SDS011;2130;48.472;11.934;2022-07-10T11:45:22;67.30;;;2.80;;
4232;SDS011;2130;48.472;11.934;2022-07-10T11:47:53;67.20;;;2.87;;
4232;SDS011;2130;48.472;11.934;2022-07-10T11:50:24;67.33;;;2.97;;
4232;SDS011;2130;48.472;11.934;2022-07-10T11:52:53;68.17;;;2.90;;
4232;SDS011;2130;48.472;11.934;2022-07-10T11:55:22;67.80;;;2.90;;
4232;SDS011;2130;48.472;11.934;2022-07-10T11:57:51;67.87;;;2.90;;
4232;SDS011;2130;48.472;11.934;2022-07-10T12:00:23;67.17;;;2.67;;
4232;SDS011;2130;48.472;11.934;2022-07-10T12:02:52;67.70;;;2.70;;
4232;SDS011;2130;48.472;11.934;2022-07-10T12:05:35;70.00;;;2.70;;
4232;SDS011;2130;48.472;11.934;2022-07-10T12:08:04;67.60;;;2.77;;
4232;SDS011;2130;48.472;11.934;2022-07-10T12:10:34;67.27;;;2.67;;
4232;SDS011;2130;48.472;11.934;2022-07-10T12:13:03;68.10;;;2.50;;
4232;SDS011;2130;48.472;11.934;2022-07-10T12:15:36;67.70;;;2.90;;
4232;SDS011;2130;48.472;11.934;2022-07-10T12:18:05;67.90;;;2.80;;
4232;SDS011;2130;48.472;11.934;2022-07-10T12:20:36;69.47;;;2.70;;
4232;SDS011;2130;48.472;11.934;2022-07-10T12:23:05;67.83;;;3.03;;
4232;SDS011;2130;48.472;11.934;2022-07-10T12:25:34;68.07;;;3.43;;
4232;SDS011;2130;48.472;11.934;2022-07-10T12:28:03;66.93;;;2.80;;
4232;SDS011;2130;48.472;11.934;2022-07-10T12:30:36;66.83;;;2.80;;
4232;SDS011;2130;48.472;11.934;2022-07-10T12:33:05;67.80;;;3.40;;
4232;SDS011;2130;48.472;11.934;2022-07-10T12:35:46;70.47;;;3.10;;
4232;SDS011;2130;48.472;11.934;2022-07-10T12:38:18;67.00;;;2.60;;
4232;SDS011;2130;48.472;11.934;2022-07-10T12:40:47;67.90;;;2.70;;
4232;SDS011;2130;48.472;11.934;2022-07-10T12:43:25;67.00;;;2.90;;
4232;SDS011;2130;48.472;11.934;2022-07-10T12:46:12;67.57;;;2.90;;
4232;SDS011;2130;48.472;11.934;2022-07-10T12:48:43;67.80;;;2.70;;
4232;SDS011;2130;48.472;11.934;2022-07-10T12:51:26;67.97;;;2.90;;
4232;SDS011;2130;48.472;11.934;2022-07-10T12:56:57;71.07;;;3.07;;
4232;SDS011;2130;48.472;11.934;2022-07-10T12:59:27;69.30;;;2.70;;
4232;SDS011;2130;48.472;11.934;2022-07-10T13:01:55;69.90;;;2.90;;
4232;SDS011;2130;48.472;11.934;2022-07-10T13:04:25;67.47;;;2.47;;
4232;SDS011;2130;48.472;11.934;2022-07-10T13:06:55;68.30;;;2.50;;
4232;SDS011;2130;48.472;11.934;2022-07-10T13:09:40;67.47;;;2.50;;
4232;SDS011;2130;48.472;11.934;2022-07-10T13:12:08;67.37;;;2.50;;
4232;SDS011;2130;48.472;11.934;2022-07-10T13:14:36;67.43;;;2.63;;
4232;SDS011;2130;48.472;11.934;2022-07-10T13:17:04;67.77;;;2.47;;
4232;SDS011;2130;48.472;11.934;2022-07-10T13:19:32;67.53;;;2.40;;
4232;SDS011;2130;48.472;11.934;2022-07-10T13:22:02;67.70;;;2.40;;
4232;SDS011;2130;48.472;11.934;2022-07-10T13:24:31;70.07;;;2.50;;
4232;SDS011;2130;48.472;11.934;2022-07-10T13:26:59;67.10;;;2.27;;
4232;SDS011;2130;48.472;11.934;2022-07-10T13:29:27;67.77;;;2.30;;
4232;SDS011;2130;48.472;11.934;2022-07-10T13:31:55;68.10;;;2.57;;
4232;SDS011;2130;48.472;11.934;2022-07-10T13:34:23;67.43;;;2.50;;
4232;SDS011;2130;48.472;11.934;2022-07-10T13:36:52;67.20;;;2.40;;
4232;SDS011;2130;48.472;11.934;2022-07-10T13:39:22;68.20;;;2.40;;
4232;SDS011;2130;48.472;11.934;2022-07-10T13:41:51;67.83;;;2.50;;
4232;SDS011;2130;48.472;11.934;2022-07-10T13:44:19;67.17;;;2.70;;
4232;SDS011;2130;48.472;11.934;2022-07-10T13:46:47;70.83;;;2.70;;
4232;SDS011;2130;48.472;11.934;2022-07-10T13:49:15;69.10;;;2.70;;
4232;SDS011;2130;48.472;11.934;2022-07-10T13:51:43;67.73;;;2.47;;
4232;SDS011;2130;48.472;11.934;2022-07-10T13:54:11;68.10;;;2.57;;
4232;SDS011;2130;48.472;11.934;2022-07-10T13:56:41;67.30;;;2.73;;
4232;SDS011;2130;48.472;11.934;2022-07-10T13:59:10;68.13;;;2.40;;
4232;SDS011;2130;48.472;11.934;2022-07-10T14:01:38;66.70;;;2.70;;
4232;SDS011;2130;48.472;11.934;2022-07-10T14:04:06;67.20;;;2.50;;
4232;SDS011;2130;48.472;11.934;2022-07-10T14:06:35;68.07;;;2.50;;
4232;SDS011;2130;48.472;11.934;2022-07-10T14:09:03;67.70;;;2.90;;
4232;SDS011;2130;48.472;11.934;2022-07-10T14:11:31;68.27;;;2.50;;
4232;SDS011;2130;48.472;11.934;2022-07-10T14:14:01;68.10;;;2.50;;
4232;SDS011;2130;48.472;11.934;2022-07-10T14:16:29;67.77;;;2.20;;
4232;SDS011;2130;48.472;11.934;2022-07-10T14:18:58;67.87;;;2.23;;
4232;SDS011;2130;48.472;11.934;2022-07-10T14:21:26;67.23;;;2.10;;
4232;SDS011;2130;48.472;11.934;2022-07-10T14:23:55;67.80;;;2.10;;
4232;SDS011;2130;48.472;11.934;2022-07-10T14:26:23;67.80;;;2.10;;
4232;SDS011;2130;48.472;11.934;2022-07-10T14:28:52;68.00;;;2.20;;
4232;SDS011;2130;48.472;11.934;2022-07-10T14:31:23;67.67;;;2.13;;
4232;SDS011;2130;48.472;11.934;2022-07-10T14:33:51;67.40;;;2.10;;
4232;SDS011;2130;48.472;11.934;2022-07-10T14:36:19;69.17;;;2.40;;
4232;SDS011;2130;48.472;11.934;2022-07-10T14:38:49;67.50;;;2.10;;
4232;SDS011;2130;48.472;11.934;2022-07-10T14:41:17;67.53;;;2.00;;
4232;SDS011;2130;48.472;11.934;2022-07-10T14:43:45;68.50;;;2.27;;
4232;SDS011;2130;48.472;11.934;2022-07-10T14:46:14;67.47;;;2.10;;
4232;SDS011;2130;48.472;11.934;2022-07-10T14:48:44;66.90;;;2.10;;
4232;SDS011;2130;48.472;11.934;2022-07-10T14:51:12;67.50;;;2.00;;
4232;SDS011;2130;48.472;11.934;2022-07-10T14:53:40;67.87;;;2.13;;
4232;SDS011;2130;48.472;11.934;2022-07-10T14:56:11;67.40;;;2.20;;
4232;SDS011;2130;48.472;11.934;2022-07-10T14:58:42;68.10;;;2.20;;
4232;SDS011;2130;48.472;11.934;2022-07-10T15:01:31;67.57;;;2.13;;
4232;SDS011;2130;48.472;11.934;2022-07-10T15:04:00;66.50;;;1.93;;
4232;SDS011;2130;48.472;11.934;2022-07-10T15:06:28;67.47;;;2.20;;
4232;SDS011;2130;48.472;11.934;2022-07-10T15:08:57;67.73;;;2.20;;
4232;SDS011;2130;48.472;11.934;2022-07-10T15:11:25;67.43;;;2.10;;
4232;SDS011;2130;48.472;11.934;2022-07-10T15:13:53;67.43;;;2.40;;
4232;SDS011;2130;48.472;11.934;2022-07-10T15:16:25;67.37;;;2.00;;
4232;SDS011;2130;48.472;11.934;2022-07-10T15:18:54;67.77;;;2.00;;
4232;SDS011;2130;48.472;11.934;2022-07-10T15:21:24;67.10;;;2.07;;
4232;SDS011;2130;48.472;11.934;2022-07-10T15:23:52;67.77;;;2.30;;
4232;SDS011;2130;48.472;11.934;2022-07-10T15:26:20;67.20;;;2.20;;
4232;SDS011;2130;48.472;11.934;2022-07-10T15:28:48;67.60;;;2.27;;
4232;SDS011;2130;48.472;11.934;2022-07-10T15:31:17;67.70;;;2.20;;
4232;SDS011;2130;48.472;11.934;2022-07-10T15:33:45;69.13;;;2.10;;
4232;SDS011;2130;48.472;11.934;2022-07-10T15:36:13;66.60;;;2.17;;
4232;SDS011;2130;48.472;11.934;2022-07-10T15:38:43;67.60;;;2.10;;